Time;durP1;ratioP1;P1;durP2;ratioP2;P2;SDS_P1;SDS_P2;PMS_P1;PMS_P2;Temp;Humidity;BMP_temperature;BMP_pressure;BME280_temperature;BME280_humidity;BME280_pressure;Samples;Min_cycle;Max_cycle;Signal;HPM_P1;HPM_P2
2021/06/10 00:03:08;;;;;;;19.60;14.05;;;18.00;99.90;;;;;;12439394;28;20123;-35
2021/06/10 00:09:10;;;;;;;21.17;13.95;;;17.30;99.90;;;;;;12446686;28;20131;-35
2021/06/10 00:15:17;;;;;;;19.55;14.70;;;17.20;99.90;;;;;;12444142;28;20049;-37
2021/06/10 00:21:19;;;;;;;23.13;14.02;;;16.70;99.90;;;;;;12443152;28;20107;-35
2021/06/10 00:27:21;;;;;;;16.75;14.48;;;16.80;99.90;;;;;;12447442;28;20062;-35
2021/06/10 00:33:23;;;;;;;19.48;14.98;;;16.90;99.90;;;;;;12444400;28;20135;-36
2021/06/10 00:39:25;;;;;;;18.88;14.50;;;17.30;99.90;;;;;;12445923;28;20123;-35
2021/06/10 00:45:27;;;;;;;20.80;16.52;;;17.50;99.90;;;;;;12440100;28;20045;-35
2021/06/10 00:51:29;;;;;;;15.95;13.93;;;17.40;99.90;;;;;;12442481;28;20050;-35
2021/06/10 00:57:31;;;;;;;21.50;15.35;;;17.50;99.90;;;;;;12443738;28;20087;-35
2021/06/10 01:03:33;;;;;;;19.27;15.30;;;17.50;99.90;;;;;;12435000;28;20057;-35
2021/06/10 01:10:01;;;;;;;19.90;14.75;;;17.40;99.90;;;;;;12439632;28;20137;-36
2021/06/10 01:16:03;;;;;;;18.42;16.45;;;17.70;99.90;;;;;;12385883;28;20715;-35
2021/06/10 01:22:19;;;;;;;17.00;15.23;;;17.60;99.90;;;;;;12389329;28;20050;-35
2021/06/10 01:28:28;;;;;;;17.42;15.40;;;17.70;99.90;;;;;;12388449;28;20058;-37
2021/06/10 01:34:30;;;;;;;25.60;14.82;;;17.70;99.90;;;;;;12390803;28;20078;-35
2021/06/10 01:40:32;;;;;;;20.08;15.90;;;17.60;99.90;;;;;;12388962;28;20050;-35
2021/06/10 01:46:35;;;;;;;23.52;15.75;;;17.50;99.90;;;;;;12390384;28;20045;-35
2021/06/10 01:52:40;;;;;;;25.93;16.77;;;17.60;99.90;;;;;;12387384;28;20310;-35
2021/06/10 01:58:43;;;;;;;21.42;17.67;;;17.50;99.90;;;;;;12387257;28;20145;-36
2021/06/10 02:04:45;;;;;;;26.13;17.63;;;17.00;99.90;;;;;;12389941;28;20180;-35
2021/06/10 02:10:54;;;;;;;27.42;18.17;;;17.20;99.90;;;;;;12386497;28;20122;-35
2021/06/10 02:16:57;;;;;;;22.58;18.42;;;17.20;99.90;;;;;;12391216;28;20137;-35
2021/06/10 02:22:59;;;;;;;21.10;16.95;;;17.10;99.90;;;;;;12380322;28;20490;-35
2021/06/10 02:29:01;;;;;;;23.50;17.48;;;17.10;99.90;;;;;;12387345;28;20473;-36
2021/06/10 02:35:05;;;;;;;26.88;17.98;;;17.10;99.90;;;;;;12387070;28;20056;-36
2021/06/10 02:41:09;;;;;;;21.30;17.08;;;17.00;99.90;;;;;;12389064;28;20081;-35
2021/06/10 02:47:13;;;;;;;28.70;17.92;;;17.00;99.90;;;;;;12390202;28;20164;-35
2021/06/10 02:53:19;;;;;;;27.70;19.92;;;17.00;99.90;;;;;;12385383;28;20137;-35
2021/06/10 02:59:23;;;;;;;26.98;17.55;;;16.90;99.90;;;;;;12382013;28;20068;-36
2021/06/10 03:05:26;;;;;;;24.00;18.52;;;16.80;99.90;;;;;;12388078;28;20054;-36
2021/06/10 03:11:29;;;;;;;29.83;16.43;;;16.70;99.90;;;;;;12391112;28;20059;-36
2021/06/10 03:17:32;;;;;;;30.10;18.38;;;16.70;99.90;;;;;;12399850;28;20524;-37
2021/06/10 03:23:34;;;;;;;27.75;16.90;;;16.50;99.90;;;;;;12394028;28;20054;-36
2021/06/10 03:29:36;;;;;;;28.42;20.85;;;16.60;99.90;;;;;;12395915;28;20062;-37
2021/06/10 03:35:39;;;;;;;27.05;21.60;;;16.00;99.90;;;;;;12393566;28;20100;-36
2021/06/10 03:41:42;;;;;;;24.52;21.35;;;15.90;99.90;;;;;;12395696;28;20054;-36
2021/06/10 03:47:44;;;;;;;25.38;21.70;;;16.20;99.90;;;;;;12390712;28;20447;-36
2021/06/10 03:53:51;;;;;;;25.83;21.77;;;16.60;99.90;;;;;;12395610;28;20054;-36
2021/06/10 03:59:52;;;;;;;27.30;22.02;;;16.50;99.90;;;;;;12393392;28;20103;-36
2021/06/10 04:05:55;;;;;;;28.10;22.17;;;16.50;99.90;;;;;;12395597;28;20141;-36
2021/06/10 04:11:57;;;;;;;25.75;21.85;;;16.60;99.90;;;;;;12392093;28;20044;-36
2021/06/10 04:17:59;;;;;;;24.45;20.85;;;16.70;99.90;;;;;;12395720;28;20506;-37
2021/06/10 04:24:01;;;;;;;25.25;20.98;;;16.70;99.90;;;;;;12390423;28;20054;-35
2021/06/10 04:30:07;;;;;;;26.48;21.35;;;16.70;99.90;;;;;;12392430;28;20050;-36
2021/06/10 04:36:12;;;;;;;26.80;21.88;;;16.80;99.90;;;;;;12391367;28;20062;-35
2021/06/10 04:42:14;;;;;;;23.35;20.95;;;16.90;99.90;;;;;;12390505;28;20159;-36
2021/06/10 04:48:16;;;;;;;25.02;20.90;;;17.10;99.90;;;;;;12391869;28;20053;-35
2021/06/10 04:54:18;;;;;;;26.75;21.23;;;17.20;99.90;;;;;;12384591;28;20058;-36
2021/06/10 05:00:20;;;;;;;24.85;20.38;;;17.30;99.90;;;;;;12385109;28;20062;-36
2021/06/10 05:06:22;;;;;;;25.83;21.92;;;17.30;99.90;;;;;;12382552;28;20054;-35
2021/06/10 05:12:24;;;;;;;22.13;19.63;;;17.30;99.90;;;;;;12386462;28;20107;-36
2021/06/10 05:18:26;;;;;;;24.02;19.23;;;17.60;99.90;;;;;;12381781;28;20050;-35
2021/06/10 05:24:28;;;;;;;28.30;21.40;;;17.40;99.90;;;;;;12383467;28;20414;-35
2021/06/10 05:30:29;;;;;;;23.65;20.20;;;17.30;99.90;;;;;;12383870;28;20422;-36
2021/06/10 05:36:31;;;;;;;27.38;22.33;;;17.30;99.90;;;;;;12381753;28;20054;-35
2021/06/10 05:42:34;;;;;;;25.42;21.88;;;17.50;99.90;;;;;;12381043;28;20061;-35
2021/06/10 05:48:36;;;;;;;28.92;23.90;;;17.50;99.90;;;;;;12381074;28;20053;-37
2021/06/10 05:54:37;;;;;;;27.60;24.58;;;17.50;99.90;;;;;;12383369;28;20061;-37
2021/06/10 06:00:40;;;;;;;23.98;21.55;;;17.60;99.90;;;;;;12375569;28;20057;-35
2021/06/10 06:06:43;;;;;;;29.35;26.20;;;17.80;99.90;;;;;;12380027;28;20061;-36
2021/06/10 06:12:47;;;;;;;25.58;22.35;;;17.80;99.90;;;;;;12379964;28;20095;-36
2021/06/10 06:18:49;;;;;;;26.60;23.30;;;18.00;99.90;;;;;;12382254;28;20123;-37
2021/06/10 06:24:51;;;;;;;26.35;23.48;;;18.10;99.90;;;;;;12377613;28;20046;-37
2021/06/10 06:30:53;;;;;;;29.95;25.52;;;18.30;99.90;;;;;;12386735;28;20096;-35
2021/06/10 06:36:55;;;;;;;31.00;25.10;;;18.20;99.90;;;;;;12381540;28;20836;-35
2021/06/10 06:42:57;;;;;;;24.13;21.15;;;18.40;99.90;;;;;;12389136;28;20045;-36
2021/06/10 06:48:59;;;;;;;32.25;24.48;;;18.70;99.90;;;;;;12387401;28;20054;-35
2021/06/10 06:55:00;;;;;;;24.73;21.63;;;18.90;99.90;;;;;;12394386;28;20203;-35
2021/06/10 07:01:03;;;;;;;29.50;23.42;;;18.90;99.90;;;;;;12389091;28;20474;-36
2021/06/10 07:07:04;;;;;;;21.33;18.83;;;19.10;99.90;;;;;;12397121;28;20046;-37
2021/06/10 07:13:06;;;;;;;28.92;24.85;;;19.30;99.90;;;;;;12395258;28;20058;-36
2021/06/10 07:19:10;;;;;;;26.90;24.05;;;19.40;99.90;;;;;;12393897;28;20179;-37
2021/06/10 07:25:12;;;;;;;32.00;24.85;;;19.60;99.90;;;;;;12392410;28;21472;-36
2021/06/10 07:31:14;;;;;;;26.27;22.08;;;19.70;99.90;;;;;;12391909;28;20061;-36
2021/06/10 07:37:16;;;;;;;25.92;23.23;;;19.90;99.90;;;;;;12393799;28;20058;-36
2021/06/10 07:43:18;;;;;;;21.20;18.27;;;20.00;99.90;;;;;;12387510;28;20755;-37
2021/06/10 07:49:20;;;;;;;25.10;20.30;;;20.10;99.90;;;;;;12389373;28;20149;-37
2021/06/10 07:55:22;;;;;;;25.98;19.48;;;20.30;99.90;;;;;;12391416;28;20119;-36
2021/06/10 08:01:24;;;;;;;22.08;18.48;;;20.40;99.90;;;;;;12391752;28;20467;-36
2021/06/10 08:07:27;;;;;;;23.13;17.75;;;20.60;99.90;;;;;;12391319;28;20056;-36
2021/06/10 08:13:29;;;;;;;19.42;15.88;;;20.70;99.90;;;;;;12388236;28;20050;-37
2021/06/10 08:19:31;;;;;;;17.40;10.45;;;20.90;99.90;;;;;;12385100;28;20157;-36
2021/06/10 08:25:34;;;;;;;11.10;7.18;;;21.20;99.90;;;;;;12389440;28;20083;-36
2021/06/10 08:31:37;;;;;;;7.90;6.45;;;21.30;99.90;;;;;;12392804;28;20054;-36
2021/06/10 08:37:39;;;;;;;12.07;8.03;;;21.40;99.90;;;;;;12388212;28;20209;-37
2021/06/10 08:43:42;;;;;;;12.07;5.75;;;21.50;99.90;;;;;;12386913;28;20471;-36
2021/06/10 08:49:44;;;;;;;21.30;5.30;;;21.60;99.90;;;;;;12390983;28;20050;-36
2021/06/10 08:55:48;;;;;;;4.28;3.67;;;21.70;99.90;;;;;;12391398;28;20050;-42
2021/06/10 09:01:50;;;;;;;5.95;3.60;;;21.80;99.90;;;;;;12388215;28;20046;-37
2021/06/10 09:07:57;;;;;;;7.20;3.67;;;22.00;99.90;;;;;;12387803;28;20054;-37
2021/06/10 09:13:59;;;;;;;5.78;4.35;;;22.20;99.90;;;;;;12389263;28;20054;-37
2021/06/10 09:20:22;;;;;;;6.43;3.00;;;22.40;99.90;;;;;;12383336;28;20054;-37
2021/06/10 09:26:32;;;;;;;5.35;3.10;;;22.60;99.90;;;;;;12381388;28;20060;-38
2021/06/10 09:32:34;;;;;;;5.88;3.78;;;22.70;99.90;;;;;;12384620;28;20057;-36
2021/06/10 09:38:36;;;;;;;9.33;5.50;;;22.80;99.90;;;;;;12388540;28;20072;-36
2021/06/10 09:44:48;;;;;;;7.68;5.00;;;22.90;99.90;;;;;;12382376;28;20247;-38
2021/06/10 09:50:53;;;;;;;7.03;5.72;;;23.30;99.90;;;;;;12379882;28;20049;-36
2021/06/10 09:57:00;;;;;;;6.63;5.13;;;23.40;99.90;;;;;;12387862;28;20064;-36
2021/06/10 10:03:02;;;;;;;6.40;3.83;;;23.30;99.90;;;;;;12380786;28;20711;-36
2021/06/10 10:09:07;;;;;;;8.15;5.00;;;23.50;99.90;;;;;;12382058;28;20066;-36
2021/06/10 10:15:10;;;;;;;4.32;3.67;;;23.50;99.90;;;;;;12381508;28;20446;-37
2021/06/10 10:21:13;;;;;;;3.60;2.20;;;23.60;99.90;;;;;;12380323;28;20050;-36
2021/06/10 10:27:15;;;;;;;3.80;1.75;;;23.80;99.90;;;;;;12384395;28;20105;-36
2021/06/10 10:33:23;;;;;;;3.47;2.00;;;24.00;99.90;;;;;;12380248;28;20949;-37
2021/06/10 10:39:32;;;;;;;3.58;2.33;;;24.00;99.90;;;;;;12377146;28;20058;-36
2021/06/10 10:45:35;;;;;;;8.88;2.80;;;24.00;99.90;;;;;;12377498;28;20091;-36
2021/06/10 10:51:37;;;;;;;4.43;2.58;;;24.10;99.90;;;;;;12379224;28;20046;-37
2021/06/10 10:57:40;;;;;;;4.68;2.35;;;24.20;99.90;;;;;;12380981;28;20045;-37
2021/06/10 11:03:43;;;;;;;3.70;2.78;;;24.40;99.90;;;;;;12380287;28;20058;-37
2021/06/10 11:09:45;;;;;;;3.50;2.00;;;24.60;99.90;;;;;;12374171;28;20105;-38
2021/06/10 11:15:48;;;;;;;4.63;2.40;;;24.90;99.90;;;;;;12382444;28;20054;-37
2021/06/10 11:21:51;;;;;;;4.38;2.88;;;25.10;99.90;;;;;;12376850;28;20590;-36
2021/06/10 11:28:06;;;;;;;5.13;2.28;;;25.00;99.90;;;;;;12380398;28;20736;-36
2021/06/10 11:34:28;;;;;;;4.40;2.50;;;25.20;99.90;;;;;;12386442;28;20050;-36
2021/06/10 11:40:31;;;;;;;3.25;2.13;;;25.20;99.90;;;;;;12385565;28;20093;-36
2021/06/10 11:46:39;;;;;;;4.47;2.30;;;25.30;99.90;;;;;;12386078;28;20287;-36
2021/06/10 11:53:04;;;;;;;4.22;2.30;;;25.40;99.90;;;;;;12385211;28;20045;-38
2021/06/10 11:59:24;;;;;;;4.53;2.30;;;25.20;99.90;;;;;;12381778;28;20066;-36
2021/06/10 12:05:26;;;;;;;2.30;1.83;;;25.00;99.90;;;;;;12384352;28;20050;-36
2021/06/10 12:11:28;;;;;;;3.70;1.52;;;25.40;99.90;;;;;;12386748;28;20145;-36
2021/06/10 12:17:51;;;;;;;3.53;1.58;;;25.60;99.90;;;;;;12387975;28;20867;-36
2021/06/10 12:24:01;;;;;;;2.42;1.55;;;26.00;99.90;;;;;;12384504;28;20057;-37
2021/06/10 12:30:03;;;;;;;2.42;1.33;;;26.00;99.90;;;;;;12381586;28;20052;-36
2021/06/10 12:36:12;;;;;;;8.27;1.90;;;26.00;99.90;;;;;;12381333;28;20049;-36
2021/06/10 12:42:13;;;;;;;3.35;1.38;;;26.10;99.90;;;;;;12384295;28;20087;-37
2021/06/10 12:48:30;;;;;;;3.10;1.73;;;26.20;99.90;;;;;;12385163;28;20054;-38
2021/06/10 12:54:33;;;;;;;2.70;1.58;;;25.80;99.90;;;;;;12383428;28;20140;-37
2021/06/10 13:00:35;;;;;;;;;;;26.00;99.90;;;;;;12386700;28;20119;-36
2021/06/10 13:06:37;;;;;;;3.95;1.65;;;26.50;99.90;;;;;;12380103;28;19927;-39
2021/06/10 13:12:39;;;;;;;4.15;1.80;;;26.70;99.90;;;;;;12382196;28;20086;-37
2021/06/10 13:18:43;;;;;;;3.83;2.10;;;26.80;99.90;;;;;;12381185;28;20446;-38
2021/06/10 13:24:49;;;;;;;3.63;1.95;;;26.30;99.90;;;;;;12375902;28;20054;-37
2021/06/10 13:30:51;;;;;;;3.90;2.08;;;26.80;99.90;;;;;;12376335;28;20052;-37
2021/06/10 13:37:02;;;;;;;6.07;1.97;;;26.80;99.90;;;;;;12381840;28;20693;-37
2021/06/10 13:43:04;;;;;;;3.15;1.98;;;27.00;99.90;;;;;;12376850;28;20050;-37
2021/06/10 13:49:06;;;;;;;3.90;1.97;;;27.00;99.90;;;;;;12375306;28;20041;-37
2021/06/10 13:55:08;;;;;;;5.60;1.80;;;26.90;99.90;;;;;;12381407;28;20062;-37
2021/06/10 14:01:10;;;;;;;7.80;1.90;;;27.00;99.90;;;;;;12382435;28;20045;-38
2021/06/10 14:07:12;;;;;;;3.50;1.70;;;26.90;99.90;;;;;;12375709;28;20516;-37
2021/06/10 14:13:15;;;;;;;5.23;1.80;;;26.90;99.90;;;;;;12370732;28;20124;-36
2021/06/10 14:19:19;;;;;;;3.47;1.80;;;26.90;99.90;;;;;;12381441;28;20100;-37
2021/06/10 14:25:20;;;;;;;5.53;2.20;;;27.00;99.90;;;;;;12380586;28;20051;-36
2021/06/10 14:37:44;;;;;;;3.85;1.80;;;27.20;99.90;;;;;;12380697;28;20101;-37
2021/06/10 14:43:46;;;;;;;2.95;1.58;;;27.10;99.90;;;;;;12378455;28;20050;-36
2021/06/10 14:49:48;;;;;;;4.10;1.80;;;27.20;99.90;;;;;;12374292;28;20141;-36
2021/06/10 14:55:50;;;;;;;2.97;1.80;;;27.60;99.90;;;;;;12373948;28;20177;-36
2021/06/10 15:01:52;;;;;;;4.53;1.60;;;27.70;99.90;;;;;;12383423;28;20442;-37
2021/06/10 15:07:54;;;;;;;3.83;1.90;;;27.60;99.90;;;;;;12390674;28;20054;-37
2021/06/10 15:13:56;;;;;;;3.55;1.48;;;27.70;99.90;;;;;;12384949;28;20074;-36
2021/06/10 15:19:58;;;;;;;5.40;1.60;;;27.70;99.90;;;;;;12383796;28;20050;-36
2021/06/10 15:26:00;;;;;;;3.30;1.70;;;27.40;99.90;;;;;;12388559;28;20081;-36
2021/06/10 15:32:02;;;;;;;2.50;1.23;;;27.60;99.90;;;;;;12408067;28;20103;-37
2021/06/10 15:38:04;;;;;;;2.83;1.40;;;27.90;99.90;;;;;;12441315;28;20058;-38
2021/06/10 15:44:09;;;;;;;3.15;1.70;;;27.90;99.90;;;;;;12402116;28;20088;-37
2021/06/10 15:50:11;;;;;;;3.20;1.60;;;27.90;99.90;;;;;;12393641;28;20078;-37
2021/06/10 15:56:13;;;;;;;4.30;1.50;;;28.00;99.90;;;;;;12381818;28;20442;-38
2021/06/10 16:02:14;;;;;;;3.03;1.60;;;28.20;99.90;;;;;;12394012;28;20054;-36
2021/06/10 16:08:16;;;;;;;3.60;1.70;;;27.90;99.90;;;;;;12385916;28;20133;-37
2021/06/10 16:14:20;;;;;;;2.45;1.40;;;28.10;99.90;;;;;;12386356;28;20123;-37
2021/06/10 16:20:21;;;;;;;5.83;1.37;;;28.10;99.90;;;;;;12390034;28;20054;-38
2021/06/10 16:26:24;;;;;;;2.80;1.20;;;28.20;99.90;;;;;;12388197;28;20042;-36
2021/06/10 16:32:28;;;;;;;4.18;1.77;;;28.00;99.90;;;;;;12388201;28;20062;-36
2021/06/10 16:38:30;;;;;;;5.05;1.58;;;27.90;99.90;;;;;;12384925;28;20139;-37
2021/06/10 16:44:33;;;;;;;2.10;1.40;;;27.50;99.90;;;;;;12376571;28;20050;-42
2021/06/10 16:50:35;;;;;;;2.53;1.30;;;27.80;99.90;;;;;;12387687;28;20458;-38
2021/06/10 16:56:37;;;;;;;2.33;1.20;;;27.70;99.90;;;;;;12382593;28;20740;-37
2021/06/10 17:08:52;;;;;;;3.85;1.20;;;28.50;99.90;;;;;;12386128;28;20042;-37
2021/06/10 17:14:55;;;;;;;1.90;1.40;;;28.80;99.90;;;;;;12378604;28;20061;-36
2021/06/10 17:20:57;;;;;;;2.22;1.20;;;28.70;99.90;;;;;;12381149;28;20380;-38
2021/06/10 17:27:00;;;;;;;3.53;1.52;;;28.60;99.90;;;;;;12375538;28;20149;-37
2021/06/10 17:33:02;;;;;;;4.97;1.50;;;28.60;99.90;;;;;;12378492;28;20140;-37
2021/06/10 17:39:05;;;;;;;3.90;1.40;;;29.30;99.90;;;;;;12381058;28;20065;-38
2021/06/10 17:45:10;;;;;;;;;;;29.80;99.90;;;;;;12379126;28;20054;-37
2021/06/10 17:51:12;;;;;;;5.28;1.75;;;29.80;99.90;;;;;;12384758;28;19945;-39
2021/06/10 17:57:14;;;;;;;2.70;1.63;;;29.30;99.90;;;;;;12378018;28;20054;-39
2021/06/10 18:03:17;;;;;;;2.27;1.33;;;29.00;99.90;;;;;;12383907;28;20042;-37
2021/06/10 18:09:18;;;;;;;3.17;1.52;;;28.50;99.90;;;;;;12382603;28;20936;-37
2021/06/10 18:15:20;;;;;;;2.13;1.77;;;28.00;99.90;;;;;;12381054;28;20112;-37
2021/06/10 18:21:23;;;;;;;4.43;2.00;;;27.50;99.90;;;;;;12378543;28;20874;-37
2021/06/10 18:27:25;;;;;;;6.55;1.73;;;27.00;99.90;;;;;;12376215;28;20050;-39
2021/06/10 18:33:27;;;;;;;3.35;1.60;;;26.40;99.90;;;;;;12379367;28;20096;-37
2021/06/10 18:39:29;;;;;;;7.40;1.63;;;25.90;99.90;;;;;;12381257;28;20096;-37
2021/06/10 18:45:31;;;;;;;3.75;1.73;;;25.40;99.90;;;;;;12379884;28;20046;-36
2021/06/10 18:51:33;;;;;;;3.28;1.73;;;25.20;99.90;;;;;;12379907;28;20046;-37
2021/06/10 18:57:39;;;;;;;4.47;2.10;;;25.00;99.90;;;;;;12377534;28;20066;-36
2021/06/10 19:03:41;;;;;;;4.30;2.50;;;24.80;99.90;;;;;;12382502;28;20046;-38
2021/06/10 19:09:46;;;;;;;5.30;1.85;;;24.40;99.90;;;;;;12377756;28;20728;-37
2021/06/10 19:15:48;;;;;;;4.97;1.90;;;23.90;99.90;;;;;;12382890;28;20038;-37
2021/06/10 19:21:50;;;;;;;4.87;1.87;;;23.60;99.90;;;;;;12382455;28;20054;-37
2021/06/10 19:27:52;;;;;;;2.50;1.80;;;23.30;99.90;;;;;;12383591;28;20100;-37
2021/06/10 19:34:43;;;;;;;3.20;2.03;;;23.00;99.90;;;;;;12384964;28;20742;-39
2021/06/10 19:40:19;;;;;;;6.03;1.75;;;22.70;99.90;;;;;;12383623;28;20148;-39
2021/06/10 19:46:25;;;;;;;4.38;2.05;;;22.50;99.90;;;;;;12381303;28;20060;-38
2021/06/10 19:52:27;;;;;;;4.68;2.10;;;22.20;99.90;;;;;;12392130;28;20576;-36
2021/06/10 19:58:29;;;;;;;4.30;2.40;;;21.70;99.90;;;;;;12391092;28;20168;-37
2021/06/10 20:04:31;;;;;;;4.00;2.10;;;21.60;99.90;;;;;;12393489;28;20108;-39
2021/06/10 20:10:33;;;;;;;5.03;2.13;;;21.50;99.90;;;;;;12397376;28;20047;-38
2021/06/10 20:16:35;;;;;;;3.85;2.28;;;21.20;99.90;;;;;;12392398;28;20054;-39
2021/06/10 20:22:38;;;;;;;3.70;2.10;;;21.00;99.90;;;;;;12398332;28;20046;-39
2021/06/10 20:35:03;;;;;;;3.10;2.40;;;20.70;99.90;;;;;;12395096;28;20144;-38
2021/06/10 20:41:06;;;;;;;4.10;2.42;;;20.30;99.90;;;;;;12389379;28;20590;-36
2021/06/10 20:47:08;;;;;;;3.40;2.10;;;20.30;99.90;;;;;;12397672;28;20075;-36
2021/06/10 20:53:09;;;;;;;3.42;2.40;;;20.30;99.90;;;;;;12380093;28;20046;-36
2021/06/10 20:59:11;;;;;;;3.08;2.22;;;19.90;99.90;;;;;;12392559;28;20089;-36
2021/06/10 21:05:13;;;;;;;5.50;2.42;;;19.80;99.90;;;;;;12390492;28;20075;-37
2021/06/10 21:11:15;;;;;;;3.17;2.20;;;19.70;99.90;;;;;;12394102;28;20137;-37
2021/06/10 21:17:19;;;;;;;5.32;2.50;;;19.60;99.90;;;;;;12387672;28;20054;-36
2021/06/10 21:23:22;;;;;;;4.30;2.50;;;19.60;99.90;;;;;;12386788;28;20100;-36
2021/06/10 21:29:24;;;;;;;5.55;2.58;;;19.50;99.90;;;;;;12391134;28;20045;-38
2021/06/10 21:35:26;;;;;;;4.43;2.50;;;19.40;99.90;;;;;;12386008;28;20131;-36
2021/06/10 21:41:28;;;;;;;4.35;2.22;;;19.40;99.90;;;;;;12386172;28;20045;-37
2021/06/10 21:47:32;;;;;;;5.18;2.45;;;19.40;99.90;;;;;;12388686;28;20054;-36
2021/06/10 21:53:36;;;;;;;5.13;2.50;;;19.20;99.90;;;;;;12392316;28;20050;-37
2021/06/10 21:59:38;;;;;;;5.70;2.40;;;19.10;99.90;;;;;;12390561;28;20062;-36
2021/06/10 22:05:40;;;;;;;8.18;2.70;;;19.00;99.90;;;;;;12386363;28;20115;-36
2021/06/10 22:11:42;;;;;;;4.53;2.50;;;19.00;99.90;;;;;;12386979;28;20542;-36
2021/06/10 22:17:44;;;;;;;5.15;2.47;;;19.00;99.90;;;;;;12387602;28;20456;-36
2021/06/10 22:23:47;;;;;;;6.25;2.55;;;18.90;99.90;;;;;;12385179;28;20466;-36
2021/06/10 22:29:49;;;;;;;4.53;2.38;;;18.90;99.90;;;;;;12386904;28;20467;-35
2021/06/10 22:35:53;;;;;;;6.90;2.35;;;18.80;99.90;;;;;;12384144;28;20119;-39
2021/06/10 22:41:56;;;;;;;3.30;2.38;;;18.80;99.90;;;;;;12384066;28;20078;-35
2021/06/10 22:48:02;;;;;;;5.60;2.33;;;18.70;99.90;;;;;;12383393;28;20100;-36
2021/06/10 22:54:04;;;;;;;4.35;2.72;;;18.50;99.90;;;;;;12387017;28;20058;-36
2021/06/10 23:00:07;;;;;;;5.07;2.50;;;18.40;99.90;;;;;;12384543;28;20158;-36
2021/06/10 23:06:10;;;;;;;4.57;2.33;;;18.50;99.90;;;;;;12392597;28;20084;-35
2021/06/10 23:12:12;;;;;;;5.93;2.60;;;18.50;99.90;;;;;;12381094;28;20081;-36
2021/06/10 23:18:14;;;;;;;6.25;2.78;;;18.50;99.90;;;;;;12387237;28;20054;-35
2021/06/10 23:24:19;;;;;;;3.47;2.47;;;18.20;99.90;;;;;;12391608;28;20397;-40
2021/06/10 23:30:20;;;;;;;9.38;2.65;;;18.10;99.90;;;;;;12400413;28;20050;-36
2021/06/10 23:36:22;;;;;;;4.00;2.55;;;18.10;99.90;;;;;;12394577;28;20508;-36
2021/06/10 23:42:24;;;;;;;5.25;3.05;;;17.70;99.90;;;;;;12385902;28;20517;-36
2021/06/10 23:48:26;;;;;;;6.35;3.30;;;17.10;99.90;;;;;;12394152;28;20050;-35
2021/06/10 23:54:28;;;;;;;6.40;3.38;;;17.00;99.90;;;;;;12395784;28;20116;-36
